Bishop Sutton, United Kingdom
Current Conditions -  °F | °C
As of 11:50 AM on Thursday 30 Oct 2014 (Local Time) from EGGD Reporting Station
Broken Clouds Broken Clouds  
Wind Chill: 59°   Ceiling: 700
Heat Index: 59°   Visibility: 4mi
Dew Point: 57°   Wind: 8mph
Humidity: 94%   Direction: 180°S
Pressure: 30.06"   Gusts: NA
Location:  51.37°N, 2.55°W
Report Text: EGGD 301150Z 18007KT 7000 FEW005 BKN007 15/14 Q1018
Loading
Personal Weather Stations






























Interactive Weather Map New forecast layout! Learn more

10-Day Weather Forecast

Advertisements
Track Severe Weather on mobile